Time;durP1;ratioP1;P1;durP2;ratioP2;P2;SDS_P1;SDS_P2;PMS_P1;PMS_P2;Temp;Humidity;BMP_temperature;BMP_pressure;BME280_temperature;BME280_humidity;BME280_pressure;Samples;Min_cycle;Max_cycle;Signal;HPM_P1;HPM_P2
2023/01/22 00:00:05;;;;;;;29.60;10.90;;;;;;;1.90;100.00;101567.56;10371573;28;20047;-73
2023/01/22 00:05:07;;;;;;;32.83;11.57;;;;;;;2.03;100.00;101580.84;10370835;28;20038;-73
2023/01/22 00:10:08;;;;;;;25.95;11.27;;;;;;;2.38;100.00;101646.25;10370841;28;20058;-73
2023/01/22 00:15:09;;;;;;;26.83;11.60;;;;;;;2.38;100.00;101631.38;10371485;28;20038;-74
2023/01/22 00:20:11;;;;;;;26.80;10.85;;;;;;;2.37;100.00;101645.44;10371734;28;20072;-73
2023/01/22 00:25:13;;;;;;;26.40;11.15;;;;;;;2.16;100.00;101589.75;10374844;28;20050;-73
2023/01/22 00:30:13;;;;;;;33.50;10.48;;;;;;;2.02;100.00;101560.81;10379399;28;20045;-73
2023/01/22 00:35:14;;;;;;;29.10;10.68;;;;;;;2.47;100.00;101636.13;10379394;28;20049;-73
2023/01/22 00:40:16;;;;;;;28.73;10.63;;;;;;;2.26;100.00;101590.09;10379295;28;20052;-73
2023/01/22 00:45:17;;;;;;;26.60;11.18;;;;;;;2.50;100.00;101629.84;10378102;28;20045;-73
2023/01/22 00:50:18;;;;;;;20.73;10.98;;;;;;;2.35;100.00;101609.72;10378103;28;20050;-73
2023/01/22 00:55:19;;;;;;;29.55;10.07;;;;;;;2.38;100.00;101607.78;10379036;28;20046;-73
2023/01/22 01:00:21;;;;;;;28.77;10.75;;;;;;;2.17;100.00;101578.31;10377824;28;20037;-73
2023/01/22 01:05:22;;;;;;;27.23;10.45;;;;;;;1.43;100.00;101450.44;10377754;28;20041;-73
2023/01/22 01:10:22;;;;;;;27.77;10.82;;;;;;;1.87;100.00;101514.47;10377139;28;20038;-73
2023/01/22 01:15:23;;;;;;;30.30;11.05;;;;;;;2.38;100.00;101604.31;10378367;28;20137;-73
2023/01/22 01:20:24;;;;;;;26.60;10.88;;;;;;;1.83;100.00;101498.94;10378331;28;20056;-73
2023/01/22 01:25:24;;;;;;;24.52;10.27;;;;;;;2.37;100.00;101576.41;10377613;28;20409;-73
2023/01/22 01:30:25;;;;;;;27.05;11.07;;;;;;;2.50;100.00;101606.25;10376732;28;20050;-73
2023/01/22 01:35:26;;;;;;;28.13;11.07;;;;;;;2.55;100.00;101608.63;10375359;28;20398;-73
2023/01/22 01:40:27;;;;;;;21.35;11.25;;;;;;;2.51;100.00;101597.44;10377509;28;20124;-73
2023/01/22 01:45:33;;;;;;;28.05;11.65;;;;;;;2.46;100.00;101571.47;10376575;28;20421;-73
2023/01/22 01:50:34;;;;;;;25.27;10.82;;;;;;;2.57;100.00;101581.34;10376324;28;20049;-73
2023/01/22 01:55:38;;;;;;;28.83;11.70;;;;;;;2.47;100.00;101567.06;10376805;28;20040;-73
2023/01/22 02:00:42;;;;;;;38.67;11.50;;;;;;;2.68;100.00;101580.75;10376190;28;20049;-73
2023/01/22 02:05:43;;;;;;;24.03;11.70;;;;;;;1.73;100.00;101420.91;10376439;28;20269;-73
2023/01/22 02:10:43;;;;;;;27.40;12.80;;;;;;;2.70;100.00;101587.63;10375341;28;20045;-73
2023/01/22 02:15:44;;;;;;;24.73;11.32;;;;;;;2.57;100.00;101555.13;10376117;28;20033;-73
2023/01/22 02:20:59;;;;;;;24.38;11.85;;;;;;;2.68;100.00;101567.66;10375690;28;20064;-73
2023/01/22 02:26:00;;;;;;;23.90;12.38;;;;;;;2.78;100.00;101583.69;10372416;28;20042;-73
2023/01/22 02:31:01;;;;;;;31.45;12.00;;;;;;;2.83;100.00;101579.06;10374488;28;20497;-73
2023/01/22 02:36:02;;;;;;;30.00;12.98;;;;;;;2.66;100.00;101557.25;10374484;28;20529;-73
2023/01/22 02:41:04;;;;;;;31.10;13.18;;;;;;;2.71;100.00;101565.69;10373985;28;20068;-73
2023/01/22 02:46:04;;;;;;;25.55;12.13;;;;;;;2.83;100.00;101581.66;10374648;28;20042;-73
2023/01/22 02:51:06;;;;;;;27.67;12.07;;;;;;;2.76;100.00;101551.47;10374278;28;20406;-73
2023/01/22 02:56:10;;;;;;;29.80;12.93;;;;;;;2.17;100.00;101460.34;10374479;28;20045;-73
2023/01/22 03:01:20;;;;;;;28.48;12.32;;;;;;;2.77;100.00;101556.63;10374183;28;20041;-73
2023/01/22 03:06:24;;;;;;;27.00;12.68;;;;;;;2.95;100.00;101594.09;10374150;28;20052;-73
2023/01/22 03:11:27;;;;;;;28.83;10.77;;;;;;;2.90;100.00;101591.75;10373488;28;20077;-73
2023/01/22 03:21:47;;;;;;;28.33;10.93;;;;;;;2.81;100.00;101599.28;10373206;28;20137;-73
2023/01/22 03:26:47;;;;;;;34.40;11.25;;;;;;;2.76;100.00;101604.81;10372361;28;20128;-73
2023/01/22 03:31:48;;;;;;;29.02;11.35;;;;;;;2.68;100.00;101602.59;10372990;28;20038;-74
2023/01/22 03:36:49;;;;;;;21.58;10.85;;;;;;;2.46;100.00;101583.75;10371517;28;20037;-73
2023/01/22 03:41:49;;;;;;;25.65;11.57;;;;;;;2.15;100.00;101538.22;10372326;28;20077;-73
2023/01/22 03:46:50;;;;;;;24.30;11.43;;;;;;;2.42;100.00;101585.72;10372007;28;20038;-73
2023/01/22 03:51:51;;;;;;;25.75;11.52;;;;;;;2.52;100.00;101612.28;10373003;28;20140;-73
2023/01/22 03:56:52;;;;;;;26.48;11.18;;;;;;;2.61;100.00;101617.00;10371728;28;20128;-73
2023/01/22 04:01:53;;;;;;;23.10;9.82;;;;;;;2.68;100.00;101638.50;10378417;28;20034;-73
2023/01/22 04:06:53;;;;;;;24.83;10.88;;;;;;;2.79;100.00;101643.16;10381003;28;20088;-73
2023/01/22 04:11:54;;;;;;;26.52;11.80;;;;;;;2.73;100.00;101642.56;10380782;28;20045;-73
2023/01/22 04:16:55;;;;;;;25.63;11.27;;;;;;;2.72;100.00;101654.00;10380101;28;20064;-73
2023/01/22 04:21:55;;;;;;;28.35;12.35;;;;;;;2.61;100.00;101626.66;10379420;28;20045;-73
2023/01/22 04:26:56;;;;;;;26.30;11.90;;;;;;;2.82;100.00;101669.22;10379790;28;20069;-73
2023/01/22 04:31:57;;;;;;;25.95;12.70;;;;;;;2.83;100.00;101663.03;10379495;28;20042;-73
2023/01/22 04:36:57;;;;;;;26.33;11.75;;;;;;;2.25;100.00;101552.53;10379017;28;20417;-74
2023/01/22 04:41:58;;;;;;;33.17;13.50;;;;;;;2.92;100.00;101657.25;10379185;28;20033;-73
2023/01/22 04:46:59;;;;;;;29.08;14.75;;;;;;;3.06;100.00;101659.13;10379044;28;20041;-73
2023/01/22 04:51:59;;;;;;;30.60;14.82;;;;;;;3.21;100.00;101668.75;10378149;28;20566;-73
2023/01/22 04:57:00;;;;;;;31.00;17.05;;;;;;;3.20;100.00;101636.38;10377804;28;20080;-73
2023/01/22 05:02:02;;;;;;;32.88;16.33;;;;;;;3.52;100.00;101657.28;10376826;28;20049;-73
2023/01/22 05:07:02;;;;;;;36.17;18.40;;;;;;;3.36;100.00;101606.59;10377609;28;20045;-73
2023/01/22 05:12:03;;;;;;;42.05;18.52;;;;;;;4.00;100.00;101689.47;10377286;28;20064;-74
2023/01/22 05:17:04;;;;;;;39.88;19.13;;;;;;;4.08;100.00;101684.59;10377005;28;20144;-73
2023/01/22 05:22:05;;;;;;;38.38;17.58;;;;;;;3.72;100.00;101605.34;10377479;28;20129;-73
2023/01/22 05:27:06;;;;;;;39.75;18.25;;;;;;;4.31;100.00;101696.34;10377473;28;20075;-73
2023/01/22 05:32:07;;;;;;;39.05;18.25;;;;;;;4.29;100.00;101685.06;10376671;28;20046;-73
2023/01/22 05:37:08;;;;;;;33.72;18.05;;;;;;;4.06;100.00;101627.78;10377457;28;20050;-74
2023/01/22 05:42:13;;;;;;;31.60;16.80;;;;;;;4.55;100.00;101701.88;10376844;28;20449;-73
2023/01/22 05:47:15;;;;;;;31.13;16.45;;;;;;;4.53;100.00;101679.22;10376037;28;20057;-73
2023/01/22 05:52:15;;;;;;;39.17;18.05;;;;;;;4.72;100.00;101703.44;10376558;28;20112;-73
2023/01/22 05:57:16;;;;;;;36.03;17.65;;;;;;;4.41;100.00;101646.63;10375652;28;20042;-73
2023/01/22 06:02:17;;;;;;;30.17;16.83;;;;;;;4.90;100.00;101716.38;10376097;28;20049;-74
2023/01/22 06:07:18;;;;;;;32.30;16.42;;;;;;;4.97;100.00;101726.44;10375973;28;20042;-73
2023/01/22 06:12:19;;;;;;;34.97;17.75;;;;;;;5.03;99.19;101726.03;10373752;28;20156;-74
2023/01/22 06:17:20;;;;;;;33.63;16.08;;;;;;;4.44;98.46;101619.28;10372656;28;20057;-75
2023/01/22 06:22:21;;;;;;;27.88;15.38;;;;;;;5.03;97.42;101712.88;10373648;28;20476;-74
2023/01/22 06:27:22;;;;;;;34.03;17.73;;;;;;;5.05;96.40;101704.88;10374800;28;20076;-73
2023/01/22 06:32:22;;;;;;;33.38;14.70;;;;;;;4.98;96.32;101685.97;10374949;28;20436;-73
2023/01/22 06:37:23;;;;;;;31.13;14.18;;;;;;;5.22;96.14;101722.22;10374138;28;20034;-74
2023/01/22 06:42:24;;;;;;;31.13;15.32;;;;;;;5.30;94.95;101727.00;10374308;28;20386;-74
2023/01/22 06:47:24;;;;;;;26.60;15.38;;;;;;;5.11;94.71;101693.09;10373729;28;20418;-73
2023/01/22 06:52:25;;;;;;;27.25;14.77;;;;;;;5.28;94.01;101720.97;10373396;28;20037;-73
2023/01/22 06:57:26;;;;;;;26.98;15.15;;;;;;;5.25;93.58;101698.31;10373457;28;20048;-73
2023/01/22 07:02:27;;;;;;;30.23;15.13;;;;;;;5.52;92.34;101750.16;10365428;28;20070;-74
2023/01/22 07:07:27;;;;;;;28.58;14.40;;;;;;;5.55;92.22;101755.22;10373312;28;20104;-73
2023/01/22 07:12:28;;;;;;;28.55;14.73;;;;;;;5.42;90.79;101724.41;10372125;28;20124;-72
2023/01/22 07:17:29;;;;;;;26.98;14.88;;;;;;;5.55;91.34;101724.44;10373271;28;20063;-73
2023/01/22 07:22:31;;;;;;;23.90;13.10;;;;;;;5.53;91.37;101720.19;10372309;28;20050;-74
2023/01/22 07:27:33;;;;;;;24.08;13.00;;;;;;;5.80;90.43;101755.28;10372545;28;20111;-74
2023/01/22 07:32:34;;;;;;;26.13;13.52;;;;;;;5.78;90.05;101735.25;10371738;28;20045;-75
2023/01/22 07:37:35;;;;;;;28.67;12.10;;;;;;;5.96;88.66;101757.78;10371929;28;20090;-73
2023/01/22 07:42:36;;;;;;;21.27;11.90;;;;;;;6.05;87.30;101753.69;10372634;28;20379;-72
2023/01/22 07:47:37;;;;;;;24.35;12.38;;;;;;;5.97;86.69;101740.16;10346215;28;20039;-73
2023/01/22 07:52:37;;;;;;;29.10;13.93;;;;;;;6.11;86.47;101740.91;10362923;28;20045;-74
2023/01/22 07:57:38;;;;;;;41.28;18.95;;;;;;;6.26;86.06;101749.56;10372117;28;20034;-72
2023/01/22 08:02:40;;;;;;;37.83;16.63;;;;;;;6.03;85.18;101679.06;10371727;28;20517;-72
2023/01/22 08:07:41;;;;;;;57.35;25.30;;;;;;;6.04;84.40;101663.16;10371660;28;20049;-73
2023/01/22 08:12:42;;;;;;;33.28;16.92;;;;;;;6.62;83.72;101734.75;10372260;28;20401;-72
2023/01/22 08:17:43;;;;;;;40.90;18.90;;;;;;;6.52;82.35;101654.50;10370422;28;20050;-72
2023/01/22 08:22:44;;;;;;;29.15;11.85;;;;;;;6.81;81.40;101736.94;10371201;28;20046;-72
2023/01/22 08:27:45;;;;;;;23.38;11.10;;;;;;;6.63;81.44;101757.56;10372512;28;20070;-73
2023/01/22 08:32:46;;;;;;;22.13;11.00;;;;;;;6.51;81.30;101745.22;10371794;28;20034;-73
2023/01/22 08:37:47;;;;;;;31.35;13.55;;;;;;;6.58;81.45;101743.81;10371415;28;20073;-73
2023/01/22 08:42:52;;;;;;;21.17;11.00;;;;;;;6.59;80.20;101674.25;10370664;28;20042;-72
2023/01/22 08:47:57;;;;;;;31.02;13.00;;;;;;;7.36;79.42;101734.72;10377868;28;20125;-73
2023/01/22 08:52:58;;;;;;;31.08;14.52;;;;;;;7.48;77.97;101700.31;10378717;28;20037;-72
2023/01/22 08:57:59;;;;;;;24.42;12.88;;;;;;;8.11;77.40;101724.63;10377595;28;20412;-72
2023/01/22 09:02:59;;;;;;;18.70;8.82;;;;;;;8.09;76.27;101709.81;10378471;28;20406;-70
2023/01/22 09:08:00;;;;;;;22.50;11.23;;;;;;;8.27;75.92;101692.50;10377710;28;20044;-70
2023/01/22 09:13:01;;;;;;;28.05;9.95;;;;;;;8.95;74.21;101687.19;10378022;28;20042;-72
2023/01/22 09:18:01;;;;;;;25.67;10.10;;;;;;;8.93;72.77;101618.38;10378265;28;20053;-72
2023/01/22 09:23:02;;;;;;;21.98;9.20;;;;;;;9.58;70.23;101691.63;10361918;28;20121;-71
2023/01/22 09:28:07;;;;;;;27.80;11.95;;;;;;;9.80;69.69;101663.28;10343234;28;20450;-71
2023/01/22 09:33:08;;;;;;;29.45;8.68;;;;;;;9.42;68.61;101578.97;10336712;28;20038;-71
2023/01/22 09:38:12;;;;;;;25.83;8.30;;;;;;;9.95;68.28;101654.00;10336873;28;20050;-72
2023/01/22 09:43:31;;;;;;;18.05;7.47;;;;;;;9.91;66.19;101665.03;10336807;28;20050;-71
2023/01/22 09:48:40;;;;;;;17.55;7.40;;;;;;;9.25;64.50;101567.16;10336234;28;20109;-71
2023/01/22 09:53:46;;;;;;;27.48;9.00;;;;;;;9.81;65.21;101646.38;10335483;28;20038;-71
2023/01/22 09:58:50;;;;;;;23.30;7.93;;;;;;;9.51;64.75;101568.44;10334243;28;20591;-71
2023/01/22 10:03:59;;;;;;;26.05;7.85;;;;;;;10.13;62.61;101640.94;10335663;28;20570;-71
2023/01/22 10:09:09;;;;;;;35.67;7.63;;;;;;;10.06;61.30;101627.38;10334886;28;20120;-71
2023/01/22 10:14:15;;;;;;;30.25;7.63;;;;;;;10.27;60.57;101629.16;10335217;28;20071;-72
2023/01/22 10:19:15;;;;;;;35.35;8.05;;;;;;;10.18;60.33;101643.22;10333919;28;20435;-72
2023/01/22 10:24:16;;;;;;;32.20;7.18;;;;;;;10.27;59.32;101613.22;10334542;28;20129;-72
2023/01/22 10:29:23;;;;;;;30.55;7.20;;;;;;;10.23;58.60;101619.72;10334629;28;20479;-72
2023/01/22 10:34:35;;;;;;;35.00;8.32;;;;;;;10.10;58.28;101552.75;10334481;28;20169;-73
2023/01/22 10:39:44;;;;;;;27.17;7.43;;;;;;;10.53;56.85;101613.59;10363065;28;20082;-73
2023/01/22 10:44:45;;;;;;;37.53;8.63;;;;;;;10.40;56.35;101613.81;10348174;28;20768;-74
2023/01/22 10:49:48;;;;;;;46.70;8.65;;;;;;;10.56;55.42;101625.72;10363158;28;20042;-74
2023/01/22 10:54:56;;;;;;;35.72;7.20;;;;;;;10.26;54.38;101574.31;10373905;28;20073;-73
2023/01/22 11:00:04;;;;;;;41.05;7.65;;;;;;;10.47;53.14;101614.13;10372173;28;20092;-72
2023/01/22 11:05:25;;;;;;;36.78;6.93;;;;;;;10.53;53.75;101621.56;10372510;28;20445;-75
2023/01/22 11:10:41;;;;;;;49.38;6.63;;;;;;;10.49;53.03;101612.16;10373384;28;20046;-74
2023/01/22 11:16:19;;;;;;;32.58;6.88;;;;;;;10.26;51.69;101579.63;10372339;28;20050;-72
2023/01/22 11:21:31;;;;;;;34.20;6.45;;;;;;;9.95;51.24;101542.50;10372859;28;20046;-76
2023/01/22 11:26:53;;;;;;;37.83;6.28;;;;;;;10.35;49.21;101604.56;10372226;28;20050;-74
2023/01/22 11:32:42;;;;;;;51.40;15.65;;;;;;;10.38;50.19;101634.38;10372971;28;20065;-76
2023/01/22 11:37:52;;;;;;;44.60;8.05;;;;;;;10.10;50.93;101598.72;10372299;28;20042;-76
2023/01/22 11:43:30;;;;;;;34.97;7.35;;;;;;;10.33;51.00;101631.28;10372049;28;20060;-74
2023/01/22 11:48:40;;;;;;;44.60;6.55;;;;;;;10.32;50.56;101631.41;10373346;28;20091;-74
2023/01/22 11:53:42;;;;;;;1102.38;455.95;;;;;;;9.29;51.89;101489.03;10371780;28;20457;-75
2023/01/22 11:58:49;;;;;;;63.63;24.38;;;;;;;9.78;51.24;101582.94;10372498;28;20070;-74
2023/01/22 12:04:04;;;;;;;30.05;7.22;;;;;;;10.00;51.22;101649.13;10371013;28;20104;-74
2023/01/22 12:09:22;;;;;;;34.00;5.97;;;;;;;9.77;51.92;101626.38;10371675;28;20120;-74
2023/01/22 12:14:46;;;;;;;56.92;28.58;;;;;;;9.87;52.63;101664.44;10371451;28;20041;-75
2023/01/22 12:20:18;;;;;;;50.60;8.18;;;;;;;9.30;52.20;101592.31;10372770;28;20057;-74
2023/01/22 12:25:44;;;;;;;42.40;7.95;;;;;;;9.64;52.07;101662.91;10379338;28;20049;-76
2023/01/22 12:30:50;;;;;;;48.65;8.15;;;;;;;9.08;52.87;101595.91;10380105;28;20386;-76
2023/01/22 12:35:54;;;;;;;36.88;7.85;;;;;;;9.18;53.18;101640.22;10380353;28;20140;-76
2023/01/22 12:40:57;;;;;;;44.85;9.05;;;;;;;8.79;53.56;101613.38;10378819;28;20038;-75
2023/01/22 12:46:07;;;;;;;38.00;7.30;;;;;;;8.98;54.08;101665.72;10379070;28;20034;-74
2023/01/22 12:51:34;;;;;;;36.25;7.05;;;;;;;8.96;53.52;101688.84;10378543;28;20072;-76
2023/01/22 12:56:34;;;;;;;47.60;8.18;;;;;;;8.46;54.72;101644.25;10378827;28;20038;-74
2023/01/22 13:01:35;;;;;;;33.47;6.90;;;;;;;8.52;54.95;101669.41;10378632;28;20502;-76
2023/01/22 13:06:39;;;;;;;46.22;6.85;;;;;;;8.46;55.58;101691.94;10377905;28;20046;-76
2023/01/22 13:11:40;;;;;;;30.30;6.03;;;;;;;8.24;55.59;101682.16;10378514;28;20127;-75
2023/01/22 13:16:52;;;;;;;48.92;7.63;;;;;;;8.23;55.71;101718.38;10377809;28;20105;-74
2023/01/22 13:21:58;;;;;;;47.45;17.15;;;;;;;7.49;56.11;101629.75;10378415;28;20037;-76
2023/01/22 13:27:01;;;;;;;28.38;7.30;;;;;;;7.62;56.95;101685.19;10378031;28;20042;-75
2023/01/22 13:32:18;;;;;;;20.80;6.68;;;;;;;7.70;57.14;101723.31;10374174;28;20571;-75
2023/01/22 13:37:24;;;;;;;35.13;7.35;;;;;;;7.12;58.24;101673.94;10360437;28;20057;-76
2023/01/22 13:42:26;;;;;;;31.83;6.68;;;;;;;7.20;58.48;101722.63;10377021;28;20041;-75
2023/01/22 13:47:33;;;;;;;34.15;7.55;;;;;;;6.88;58.67;101700.34;10377706;28;20037;-74
2023/01/22 13:52:34;;;;;;;33.75;8.38;;;;;;;6.97;59.19;101739.31;10376411;28;20041;-76
2023/01/22 13:57:35;;;;;;;22.75;7.10;;;;;;;6.17;60.27;101642.84;10376429;28;20456;-76
2023/01/22 14:02:35;;;;;;;30.38;7.50;;;;;;;6.62;61.22;101767.28;10374734;28;20132;-74
2023/01/22 14:07:37;;;;;;;33.50;7.95;;;;;;;6.42;62.35;101751.97;10373049;28;20053;-74
2023/01/22 14:12:37;;;;;;;31.15;7.15;;;;;;;6.15;63.49;101750.28;10374737;28;20487;-73
2023/01/22 14:17:38;;;;;;;27.02;7.25;;;;;;;6.11;63.71;101764.66;10375733;28;20146;-75
2023/01/22 14:22:39;;;;;;;32.40;7.28;;;;;;;5.84;65.57;101769.13;10374943;28;20604;-76
2023/01/22 14:27:46;;;;;;;40.50;11.13;;;;;;;5.25;66.77;101709.69;10375428;28;20053;-75
2023/01/22 14:32:47;;;;;;;43.72;6.85;;;;;;;5.39;66.46;101768.56;10375264;28;20046;-76
2023/01/22 14:37:48;;;;;;;33.03;6.35;;;;;;;5.29;67.80;101791.16;10358512;28;20083;-74
2023/01/22 14:42:50;;;;;;;38.90;7.68;;;;;;;5.01;68.66;101782.38;10383764;28;20418;-78
2023/01/22 14:47:52;;;;;;;381.65;203.43;;;;;;;4.98;69.86;101804.50;10373785;28;20061;-77
2023/01/22 14:52:53;;;;;;;299.30;197.35;;;;;;;4.75;70.65;101797.16;10374396;28;20410;-75
2023/01/22 14:57:56;;;;;;;42.80;19.95;;;;;;;4.76;71.70;101819.94;10373510;28;20053;-75
2023/01/22 15:02:58;;;;;;;29.70;10.20;;;;;;;4.58;72.00;101803.50;10374386;28;20136;-76
2023/01/22 15:08:00;;;;;;;38.13;14.02;;;;;;;4.40;72.62;101813.34;10373751;28;20048;-77
2023/01/22 15:13:01;;;;;;;109.53;77.93;;;;;;;4.18;75.51;101834.78;10372226;28;20046;-77
2023/01/22 15:18:01;;;;;;;43.05;19.20;;;;;;;3.80;76.66;101844.91;10372248;28;20152;-75
2023/01/22 15:23:04;;;;;;;19.33;6.18;;;;;;;3.52;78.08;101835.94;10369877;28;20140;-75
2023/01/22 15:28:05;;;;;;;18.60;5.70;;;;;;;2.84;81.72;101767.94;10372534;28;20512;-75
2023/01/22 15:33:05;;;;;;;22.17;5.57;;;;;;;3.13;84.24;101847.72;10372408;28;20081;-76
2023/01/22 15:38:07;;;;;;;13.57;5.20;;;;;;;2.92;83.48;101856.75;10371461;28;20044;-76
2023/01/22 15:43:08;;;;;;;20.08;6.30;;;;;;;2.47;84.63;101793.50;10372414;28;20049;-76
2023/01/22 15:48:10;;;;;;;25.45;11.20;;;;;;;2.55;86.27;101832.44;10372387;28;20092;-74
2023/01/22 15:53:10;;;;;;;15.00;5.68;;;;;;;2.25;88.69;101793.75;10371361;28;20056;-75
2023/01/22 15:58:11;;;;;;;21.95;9.25;;;;;;;1.95;90.61;101748.16;10367695;28;20042;-76
2023/01/22 16:03:12;;;;;;;28.80;17.30;;;;;;;2.79;90.29;101881.97;10369882;28;20133;-74
2023/01/22 16:08:13;;;;;;;35.35;19.23;;;;;;;2.70;92.49;101867.53;10369506;28;20088;-74
2023/01/22 16:13:14;;;;;;;31.13;14.30;;;;;;;2.29;91.15;101794.44;10369530;28;20055;-75
2023/01/22 16:18:14;;;;;;;32.47;15.27;;;;;;;2.85;92.12;101877.22;10368718;28;20054;-75
2023/01/22 16:23:15;;;;;;;32.28;12.77;;;;;;;3.02;91.51;101906.97;10370160;28;20049;-73
2023/01/22 16:28:16;;;;;;;15.93;6.53;;;;;;;3.04;91.43;101898.09;10369680;28;20048;-73
2023/01/22 16:33:20;;;;;;;18.45;5.20;;;;;;;2.92;91.44;101880.38;10368893;28;20494;-74
2023/01/22 16:38:21;;;;;;;;;;;;;;;3.02;94.24;101894.72;10355566;28;20038;-77
2023/01/22 16:43:22;;;;;;;20.10;4.00;;;;;;;2.47;91.81;101814.47;10371711;28;20377;-76
2023/01/22 16:48:22;;;;;;;16.45;5.03;;;;;;;2.99;92.02;101902.72;10371482;28;20050;-76
2023/01/22 16:53:23;;;;;;;20.25;4.47;;;;;;;2.43;92.80;101826.06;10370719;28;20042;-77
2023/01/22 16:58:24;;;;;;;14.25;5.65;;;;;;;2.62;92.04;101856.59;10371105;28;20065;-76
2023/01/22 17:03:25;;;;;;;11.32;3.85;;;;;;;2.49;92.46;101838.00;10370585;28;20523;-76
2023/01/22 17:08:26;;;;;;;20.25;6.35;;;;;;;2.70;94.67;101889.38;10377434;28;20046;-77
2023/01/22 17:13:28;;;;;;;13.32;4.57;;;;;;;1.75;93.24;101739.50;10376353;28;20136;-77
2023/01/22 17:18:29;;;;;;;18.55;4.70;;;;;;;2.76;94.81;101911.81;10377416;28;20515;-78
2023/01/22 17:23:30;;;;;;;17.60;4.80;;;;;;;2.80;94.89;101908.09;10377983;28;20141;-74
2023/01/22 17:28:31;;;;;;;13.93;4.78;;;;;;;2.71;94.07;101896.31;10378428;28;20129;-76
2023/01/22 17:33:32;;;;;;;13.05;4.60;;;;;;;2.79;94.88;101908.19;10377222;28;20046;-76
2023/01/22 17:38:34;;;;;;;19.27;5.60;;;;;;;1.60;95.62;101717.53;10363415;28;20486;-76
2023/01/22 17:43:37;;;;;;;13.43;4.70;;;;;;;2.54;94.43;101883.19;10360155;28;20133;-76
2023/01/22 17:48:38;;;;;;;17.38;5.40;;;;;;;2.37;96.53;101864.88;10359219;28;20421;-77
2023/01/22 17:53:41;;;;;;;17.38;4.47;;;;;;;2.55;96.22;101903.28;10354887;28;20061;-77
2023/01/22 17:58:44;;;;;;;14.32;4.40;;;;;;;2.64;96.10;101915.09;10352857;28;20053;-77
2023/01/22 18:03:46;;;;;;;16.67;5.00;;;;;;;2.53;95.92;101892.00;10354661;28;20050;-77
2023/01/22 18:08:47;;;;;;;17.23;4.60;;;;;;;2.43;96.80;101881.13;10351172;28;20029;-78
2023/01/22 18:13:47;;;;;;;19.65;5.60;;;;;;;1.96;96.39;101803.09;10354916;28;20046;-78
2023/01/22 18:18:51;;;;;;;20.52;5.55;;;;;;;2.70;96.70;101931.34;10352420;28;20521;-77
2023/01/22 18:23:51;;;;;;;20.23;5.30;;;;;;;2.16;96.58;101833.56;10354264;28;20045;-77
2023/01/22 18:28:55;;;;;;;20.63;5.53;;;;;;;2.53;97.48;101885.91;10353019;28;20040;-77
2023/01/22 18:34:00;;;;;;;16.43;4.80;;;;;;;2.08;96.89;101798.16;10351654;28;20510;-77
2023/01/22 18:39:07;;;;;;;14.82;5.22;;;;;;;2.84;97.46;101922.78;10347575;28;20041;-77
2023/01/22 18:44:09;;;;;;;18.88;5.78;;;;;;;2.88;96.48;101919.06;10352947;28;20409;-76
2023/01/22 18:49:13;;;;;;;17.80;4.93;;;;;;;2.47;97.53;101864.31;10373478;28;20058;-76
2023/01/22 18:54:14;;;;;;;21.70;5.38;;;;;;;2.71;96.90;101884.97;10373822;28;20124;-77
2023/01/22 18:59:16;;;;;;;16.90;6.07;;;;;;;2.83;97.51;101914.97;10374189;28;20049;-77
2023/01/22 19:04:20;;;;;;;28.70;6.15;;;;;;;2.87;97.88;101920.00;10374227;28;20033;-77
2023/01/22 19:09:21;;;;;;;22.25;5.38;;;;;;;2.86;97.67;101910.41;10373662;28;20481;-77
2023/01/22 19:14:22;;;;;;;18.75;6.13;;;;;;;2.67;98.68;101888.69;10374205;28;20049;-76
2023/01/22 19:19:23;;;;;;;22.90;5.68;;;;;;;2.38;98.41;101846.41;10372750;28;20432;-76
2023/01/22 19:24:27;;;;;;;17.13;5.88;;;;;;;2.74;97.57;101893.53;10374153;28;20133;-77
2023/01/22 19:29:27;;;;;;;29.97;7.20;;;;;;;2.04;99.13;101793.09;10369772;28;20080;-76
2023/01/22 19:34:29;;;;;;;21.25;5.65;;;;;;;1.46;99.64;101720.00;10372357;28;20076;-77
2023/01/22 19:39:30;;;;;;;22.55;5.15;;;;;;;2.48;100.00;101899.25;10372242;28;20116;-77
2023/01/22 19:44:32;;;;;;;14.25;5.20;;;;;;;2.42;100.00;101902.19;10372607;28;20130;-76
2023/01/22 19:49:33;;;;;;;18.25;5.15;;;;;;;2.44;100.00;101930.03;10372176;28;20490;-76
2023/01/22 19:54:35;;;;;;;15.77;5.53;;;;;;;2.29;100.00;101902.81;10371819;28;20104;-76
2023/01/22 19:59:36;;;;;;;18.42;6.18;;;;;;;2.48;100.00;101921.13;10371243;28;20044;-77
2023/01/22 20:04:37;;;;;;;19.40;6.55;;;;;;;1.80;100.00;101799.56;10371701;28;20046;-77
2023/01/22 20:09:37;;;;;;;20.85;5.82;;;;;;;2.54;100.00;101912.06;10371963;28;20046;-76
2023/01/22 20:14:42;;;;;;;24.58;6.75;;;;;;;2.09;100.00;101833.94;10372112;28;20490;-76
2023/01/22 20:19:42;;;;;;;19.40;5.82;;;;;;;2.08;100.00;101822.59;10370299;28;20441;-76
2023/01/22 20:24:43;;;;;;;22.80;7.03;;;;;;;2.39;100.00;101873.50;10371872;28;20053;-76
2023/01/22 20:29:44;;;;;;;21.33;6.50;;;;;;;2.64;100.00;101908.06;10372193;28;20049;-76
2023/01/22 20:34:47;;;;;;;18.73;6.30;;;;;;;2.62;100.00;101911.69;10371882;28;20486;-76
2023/01/22 20:39:48;;;;;;;21.88;6.18;;;;;;;2.65;100.00;101907.13;10371436;28;20045;-76
2023/01/22 20:44:51;;;;;;;20.42;6.28;;;;;;;2.65;100.00;101917.63;10378680;28;20053;-76
2023/01/22 20:49:51;;;;;;;22.20;6.68;;;;;;;2.53;100.00;101896.41;10379363;28;20073;-77
2023/01/22 20:54:52;;;;;;;19.90;6.35;;;;;;;2.51;100.00;101888.59;10379301;28;20501;-77
2023/01/22 20:59:53;;;;;;;23.98;6.35;;;;;;;2.43;100.00;101880.28;10378049;28;20044;-76
2023/01/22 21:04:55;;;;;;;22.05;5.80;;;;;;;2.65;100.00;101907.13;10378081;28;20045;-77
2023/01/22 21:09:56;;;;;;;19.23;6.30;;;;;;;2.58;100.00;101900.50;10377280;28;20050;-77
2023/01/22 21:14:56;;;;;;;22.85;6.10;;;;;;;2.02;100.00;101807.19;10377737;28;20045;-77
2023/01/22 21:19:57;;;;;;;19.25;6.15;;;;;;;2.18;100.00;101857.06;10378774;28;20442;-76
2023/01/22 21:24:58;;;;;;;21.73;6.22;;;;;;;2.14;100.00;101861.63;10377870;28;20042;-77
2023/01/22 21:29:59;;;;;;;20.88;6.05;;;;;;;2.44;100.00;101914.31;10377501;28;20050;-77
2023/01/22 21:35:00;;;;;;;19.67;6.10;;;;;;;2.40;100.00;101912.78;10377612;28;20121;-77
2023/01/22 21:40:01;;;;;;;21.63;6.30;;;;;;;2.11;100.00;101851.28;10378236;28;20045;-77
2023/01/22 21:50:21;;;;;;;21.38;7.22;;;;;;;2.24;100.00;101896.97;10376591;28;20449;-76
2023/01/22 21:55:22;;;;;;;23.67;6.60;;;;;;;2.18;100.00;101883.28;10374845;28;20096;-76
2023/01/22 22:00:23;;;;;;;18.48;6.03;;;;;;;2.29;100.00;101902.81;10376301;28;20092;-76
2023/01/22 22:05:23;;;;;;;21.35;6.28;;;;;;;2.18;100.00;101891.16;10375847;28;20092;-77
2023/01/22 22:10:24;;;;;;;28.05;6.30;;;;;;;2.24;100.00;101903.94;10375871;28;20050;-76
2023/01/22 22:15:25;;;;;;;24.85;6.95;;;;;;;2.12;100.00;101887.06;10375906;28;20100;-76
2023/01/22 22:20:27;;;;;;;20.08;6.57;;;;;;;1.83;100.00;101828.22;10375854;28;20057;-77
2023/01/22 22:25:30;;;;;;;25.40;6.30;;;;;;;2.10;100.00;101888.06;10374813;28;20042;-76
2023/01/22 22:30:32;;;;;;;23.05;7.10;;;;;;;2.05;100.00;101896.16;10374843;28;20478;-76
2023/01/22 22:35:33;;;;;;;20.83;6.55;;;;;;;2.09;100.00;101900.31;10374699;28;20136;-76
2023/01/22 22:40:34;;;;;;;23.77;6.82;;;;;;;1.83;100.00;101851.81;10373216;28;20128;-76
2023/01/22 22:45:36;;;;;;;17.55;6.43;;;;;;;2.03;100.00;101883.13;10374009;28;20046;-76
2023/01/22 22:50:39;;;;;;;14.70;5.93;;;;;;;1.91;100.00;101862.75;10375054;28;20136;-77
2023/01/22 22:55:41;;;;;;;19.38;6.53;;;;;;;1.67;100.00;101824.63;10374321;28;20042;-77
2023/01/22 23:00:42;;;;;;;24.05;6.53;;;;;;;1.41;100.00;101776.13;10373952;28;20038;-76
2023/01/22 23:05:42;;;;;;;16.25;6.53;;;;;;;1.97;100.00;101877.31;10372936;28;20041;-76